Time;durP1;ratioP1;P1;durP2;ratioP2;P2;SDS_P1;SDS_P2;PMS_P1;PMS_P2;Temp;Humidity;BMP_temperature;BMP_pressure;BME280_temperature;BME280_humidity;BME280_pressure;Samples;Min_cycle;Max_cycle;Signal;HPM_P1;HPM_P2
2023/05/22 00:00:44;;;;;;;10.18;5.10;;;;;;;;;;5068707;28;20534;-77
2023/05/22 00:03:10;;;;;;;10.70;5.15;;;;;;;;;;5065738;28;20500;-77
2023/05/22 00:05:37;;;;;;;7.93;4.43;;;;;;;;;;5069373;28;20023;-76
2023/05/22 00:08:05;;;;;;;11.55;5.13;;;;;;;;;;5068312;28;20025;-77
2023/05/22 00:10:31;;;;;;;12.43;5.20;;;;;;;;;;5062571;28;20613;-77
2023/05/22 00:12:57;;;;;;;10.02;5.40;;;;;;;;;;5065061;28;20024;-77
2023/05/22 00:15:23;;;;;;;10.07;5.22;;;;;;;;;;5080318;28;20028;-77
2023/05/22 00:17:52;;;;;;;8.63;5.30;;;;;;;;;;5071296;28;20096;-77
2023/05/22 00:20:18;;;;;;;9.02;5.50;;;;;;;;;;5071262;28;20028;-77
2023/05/22 00:22:44;;;;;;;12.82;5.50;;;;;;;;;;5075166;28;20031;-76
2023/05/22 00:25:11;;;;;;;12.15;6.15;;;;;;;;;;5072493;28;20024;-77
2023/05/22 00:27:37;;;;;;;12.25;6.30;;;;;;;;;;5069066;28;20056;-76
2023/05/22 00:30:03;;;;;;;11.05;5.97;;;;;;;;;;5065412;28;20498;-76
2023/05/22 00:32:29;;;;;;;13.50;5.97;;;;;;;;;;5068527;28;20021;-76
2023/05/22 00:34:55;;;;;;;8.55;5.40;;;;;;;;;;5070871;28;20464;-77
2023/05/22 00:37:22;;;;;;;11.57;6.30;;;;;;;;;;5067627;28;20201;-76
2023/05/22 00:39:48;;;;;;;9.65;5.90;;;;;;;;;;5067026;28;20078;-77
2023/05/22 00:42:14;;;;;;;13.95;6.70;;;;;;;;;;5066419;28;20032;-77
2023/05/22 00:44:41;;;;;;;9.05;5.80;;;;;;;;;;5068265;28;20092;-77
2023/05/22 00:47:07;;;;;;;12.07;6.40;;;;;;;;;;5068027;28;20468;-77
2023/05/22 00:49:33;;;;;;;10.20;6.05;;;;;;;;;;5071515;28;20051;-76
2023/05/22 00:52:00;;;;;;;11.45;6.53;;;;;;;;;;5067629;28;20095;-76
2023/05/22 00:54:26;;;;;;;7.47;5.60;;;;;;;;;;5071642;28;20024;-76
2023/05/22 00:56:52;;;;;;;7.55;5.72;;;;;;;;;;5069382;28;20029;-76
2023/05/22 00:59:19;;;;;;;8.55;5.75;;;;;;;;;;5068960;28;20036;-77
2023/05/22 01:01:46;;;;;;;10.65;5.40;;;;;;;;;;5068537;28;20083;-77
2023/05/22 01:04:14;;;;;;;9.23;5.82;;;;;;;;;;5068064;28;20036;-77
2023/05/22 01:06:40;;;;;;;9.73;5.35;;;;;;;;;;5061033;28;20170;-77
2023/05/22 01:09:06;;;;;;;10.23;6.18;;;;;;;;;;5071530;28;20025;-77
2023/05/22 01:11:33;;;;;;;7.93;6.30;;;;;;;;;;5066807;28;20025;-77
2023/05/22 01:14:07;;;;;;;9.10;5.93;;;;;;;;;;5064508;28;20081;-77
2023/05/22 01:16:33;;;;;;;10.45;6.28;;;;;;;;;;5072375;28;20032;-77
2023/05/22 01:19:01;;;;;;;9.98;6.30;;;;;;;;;;5064711;28;20021;-77
2023/05/22 01:21:32;;;;;;;7.72;5.68;;;;;;;;;;5065065;28;21498;-77
2023/05/22 01:24:17;;;;;;;19.90;6.30;;;;;;;;;;5063445;28;20068;-77
2023/05/22 01:26:54;;;;;;;13.15;6.25;;;;;;;;;;5058419;28;20102;-77
2023/05/22 01:29:32;;;;;;;11.32;6.03;;;;;;;;;;5066644;28;20020;-77
2023/05/22 01:32:01;;;;;;;10.00;6.15;;;;;;;;;;5064468;28;20031;-77
2023/05/22 01:34:28;;;;;;;6.60;5.60;;;;;;;;;;5066338;28;20071;-77
2023/05/22 01:36:55;;;;;;;7.60;5.32;;;;;;;;;;5064135;28;20020;-77
2023/05/22 01:39:22;;;;;;;9.18;5.43;;;;;;;;;;5065129;28;20042;-76
2023/05/22 01:41:48;;;;;;;8.45;5.35;;;;;;;;;;5064515;28;20032;-77
2023/05/22 01:44:14;;;;;;;9.75;5.43;;;;;;;;;;5066510;28;20036;-76
2023/05/22 01:46:40;;;;;;;8.18;5.38;;;;;;;;;;5064298;28;20067;-77
2023/05/22 01:49:07;;;;;;;10.13;6.30;;;;;;;;;;5062388;28;20028;-77
2023/05/22 01:51:36;;;;;;;9.85;5.93;;;;;;;;;;5066274;28;20490;-77
2023/05/22 01:54:22;;;;;;;10.68;6.57;;;;;;;;;;5056946;28;20469;-77
2023/05/22 01:56:49;;;;;;;12.63;6.40;;;;;;;;;;5061441;28;20108;-76
2023/05/22 01:59:36;;;;;;;10.45;6.20;;;;;;;;;;5062397;28;20055;-77
2023/05/22 02:02:06;;;;;;;7.35;6.20;;;;;;;;;;5045930;28;20029;-77
2023/05/22 02:04:38;;;;;;;9.48;6.13;;;;;;;;;;5061915;28;20090;-76
2023/05/22 02:07:04;;;;;;;10.05;5.97;;;;;;;;;;5068642;28;20031;-76
2023/05/22 02:09:31;;;;;;;9.40;6.05;;;;;;;;;;5063585;28;20028;-77
2023/05/22 02:11:58;;;;;;;10.10;6.03;;;;;;;;;;5066372;28;20032;-77
2023/05/22 02:14:25;;;;;;;9.43;6.43;;;;;;;;;;5061233;28;20020;-77
2023/05/22 02:16:51;;;;;;;9.70;6.38;;;;;;;;;;5067868;28;20028;-76
2023/05/22 02:19:18;;;;;;;9.23;6.30;;;;;;;;;;5065524;28;20023;-76
2023/05/22 02:21:44;;;;;;;11.57;6.82;;;;;;;;;;5065491;28;20082;-77
2023/05/22 02:24:10;;;;;;;9.32;6.50;;;;;;;;;;5065618;28;20043;-77
2023/05/22 02:26:36;;;;;;;7.80;6.10;;;;;;;;;;5062285;28;20407;-76
2023/05/22 02:29:03;;;;;;;12.95;6.93;;;;;;;;;;5064295;28;20020;-76
2023/05/22 02:31:29;;;;;;;10.35;6.50;;;;;;;;;;5061548;28;20036;-77
2023/05/22 02:33:56;;;;;;;10.05;6.30;;;;;;;;;;5062957;28;20718;-78
2023/05/22 02:36:22;;;;;;;9.05;6.13;;;;;;;;;;5062510;28;20036;-77
2023/05/22 02:38:48;;;;;;;8.02;6.45;;;;;;;;;;5060963;28;20704;-77
2023/05/22 02:41:14;;;;;;;10.40;7.03;;;;;;;;;;5062302;28;20040;-78
2023/05/22 02:43:40;;;;;;;9.40;6.28;;;;;;;;;;5063682;28;20032;-77
2023/05/22 02:46:07;;;;;;;9.20;6.13;;;;;;;;;;5062123;28;20037;-77
2023/05/22 02:48:33;;;;;;;9.95;6.22;;;;;;;;;;5065468;28;20028;-77
2023/05/22 02:50:59;;;;;;;9.95;6.10;;;;;;;;;;5063896;28;20033;-77
2023/05/22 02:53:26;;;;;;;8.15;5.80;;;;;;;;;;5064923;28;20560;-78
2023/05/22 02:55:52;;;;;;;11.15;6.15;;;;;;;;;;5062351;28;20513;-76
2023/05/22 02:58:20;;;;;;;8.32;5.78;;;;;;;;;;5057725;28;20404;-78
2023/05/22 03:00:46;;;;;;;6.97;5.90;;;;;;;;;;5064311;28;20138;-77
2023/05/22 03:03:12;;;;;;;10.57;6.10;;;;;;;;;;5059160;28;20040;-77
2023/05/22 03:05:38;;;;;;;11.32;5.60;;;;;;;;;;5062672;28;20028;-77
2023/05/22 03:08:05;;;;;;;7.93;5.80;;;;;;;;;;5060073;28;20028;-77
2023/05/22 03:10:31;;;;;;;8.15;5.70;;;;;;;;;;5062109;28;20447;-78
2023/05/22 03:12:57;;;;;;;9.70;5.55;;;;;;;;;;5058169;28;20098;-78
2023/05/22 03:15:23;;;;;;;6.80;5.47;;;;;;;;;;5061074;28;20016;-78
2023/05/22 03:17:50;;;;;;;8.35;5.63;;;;;;;;;;5058851;28;20027;-77
2023/05/22 03:20:16;;;;;;;7.97;5.88;;;;;;;;;;5060416;28;20134;-77
2023/05/22 03:22:44;;;;;;;9.57;5.60;;;;;;;;;;5059750;28;20036;-78
2023/05/22 03:25:10;;;;;;;8.27;5.70;;;;;;;;;;5057616;28;20068;-78
2023/05/22 03:27:39;;;;;;;8.98;5.78;;;;;;;;;;5059507;28;20070;-78
2023/05/22 03:30:06;;;;;;;13.07;7.38;;;;;;;;;;5061667;28;20031;-76
2023/05/22 03:32:36;;;;;;;8.60;5.75;;;;;;;;;;5052217;28;20033;-78
2023/05/22 03:35:03;;;;;;;12.40;5.72;;;;;;;;;;5064035;28;20094;-78
2023/05/22 03:37:29;;;;;;;8.25;5.88;;;;;;;;;;5056158;28;20037;-78
2023/05/22 03:39:55;;;;;;;8.07;5.72;;;;;;;;;;5063769;28;20058;-78
2023/05/22 03:42:21;;;;;;;14.70;8.13;;;;;;;;;;5060856;28;20029;-77
2023/05/22 03:44:48;;;;;;;9.48;6.68;;;;;;;;;;5063966;28;20414;-77
2023/05/22 03:47:15;;;;;;;8.15;6.55;;;;;;;;;;5061184;28;20037;-77
2023/05/22 03:49:41;;;;;;;8.85;5.40;;;;;;;;;;5063685;28;20347;-76
2023/05/22 03:52:10;;;;;;;9.52;5.55;;;;;;;;;;5064614;28;20039;-77
2023/05/22 03:54:36;;;;;;;7.47;5.88;;;;;;;;;;5063941;28;20021;-78
2023/05/22 03:57:03;;;;;;;8.50;5.65;;;;;;;;;;5061041;28;20024;-77
2023/05/22 03:59:29;;;;;;;8.45;5.40;;;;;;;;;;5059107;28;20036;-77
2023/05/22 04:01:56;;;;;;;6.97;5.72;;;;;;;;;;5066617;28;20021;-77
2023/05/22 04:04:25;;;;;;;9.18;5.70;;;;;;;;;;5060836;28;20131;-77
2023/05/22 04:06:52;;;;;;;8.15;5.50;;;;;;;;;;5057632;28;20040;-77
2023/05/22 04:09:18;;;;;;;8.23;5.10;;;;;;;;;;5061797;28;20033;-77
2023/05/22 04:11:45;;;;;;;9.30;5.57;;;;;;;;;;5062519;28;20792;-79
2023/05/22 04:14:11;;;;;;;9.02;5.75;;;;;;;;;;5061948;28;20032;-77
2023/05/22 04:16:38;;;;;;;8.88;5.82;;;;;;;;;;5057827;28;20045;-77
2023/05/22 04:19:04;;;;;;;7.75;5.20;;;;;;;;;;5062243;28;20036;-77
2023/05/22 04:21:34;;;;;;;7.72;5.18;;;;;;;;;;5060944;28;20035;-78
2023/05/22 04:24:05;;;;;;;5.93;5.20;;;;;;;;;;5069248;28;20036;-77
2023/05/22 04:26:32;;;;;;;7.93;5.18;;;;;;;;;;5064455;28;20028;-77
2023/05/22 04:28:58;;;;;;;11.80;5.25;;;;;;;;;;5064692;28;20097;-77
2023/05/22 04:31:24;;;;;;;6.68;4.85;;;;;;;;;;5062931;28;20111;-77
2023/05/22 04:33:50;;;;;;;22.80;5.22;;;;;;;;;;5061960;28;20870;-78
2023/05/22 04:36:17;;;;;;;11.98;5.30;;;;;;;;;;5062179;28;20025;-77
2023/05/22 04:38:43;;;;;;;7.30;6.20;;;;;;;;;;5062444;28;20494;-77
2023/05/22 04:41:12;;;;;;;12.80;6.70;;;;;;;;;;5061132;28;20115;-77
2023/05/22 04:43:38;;;;;;;10.27;5.93;;;;;;;;;;5062251;28;20040;-77
2023/05/22 04:46:05;;;;;;;9.45;6.28;;;;;;;;;;5061376;28;20044;-77
2023/05/22 04:48:32;;;;;;;8.88;6.68;;;;;;;;;;5063714;28;20024;-77
2023/05/22 04:51:01;;;;;;;11.90;6.85;;;;;;;;;;5066088;28;20024;-77
2023/05/22 04:53:29;;;;;;;10.77;6.72;;;;;;;;;;5056110;28;20028;-76
2023/05/22 04:55:55;;;;;;;13.18;7.47;;;;;;;;;;5059005;28;20108;-77
2023/05/22 04:58:22;;;;;;;9.75;6.97;;;;;;;;;;5057082;28;20079;-77
2023/05/22 05:00:51;;;;;;;11.75;7.40;;;;;;;;;;5061222;28;20044;-77
2023/05/22 05:03:17;;;;;;;10.65;6.85;;;;;;;;;;5061349;28;20524;-78
2023/05/22 05:05:43;;;;;;;10.20;7.15;;;;;;;;;;5061646;28;20046;-77
2023/05/22 05:08:10;;;;;;;15.32;8.30;;;;;;;;;;5058937;28;20064;-77
2023/05/22 05:10:36;;;;;;;11.80;7.05;;;;;;;;;;5063641;28;20028;-77
2023/05/22 05:13:02;;;;;;;11.13;6.20;;;;;;;;;;5058484;28;20044;-77
2023/05/22 05:15:28;;;;;;;9.30;6.60;;;;;;;;;;5065355;28;20025;-77
2023/05/22 05:17:55;;;;;;;9.48;5.90;;;;;;;;;;5062489;28;20043;-77
2023/05/22 05:20:21;;;;;;;9.65;6.28;;;;;;;;;;5067371;28;20157;-76
2023/05/22 05:22:47;;;;;;;10.68;6.03;;;;;;;;;;5064120;28;20025;-77
2023/05/22 05:25:13;;;;;;;6.50;5.32;;;;;;;;;;5066705;28;20032;-77
2023/05/22 05:27:40;;;;;;;14.57;6.38;;;;;;;;;;5061344;28;20503;-77
2023/05/22 05:30:06;;;;;;;9.70;6.00;;;;;;;;;;5062258;28;20725;-77
2023/05/22 05:32:32;;;;;;;9.70;5.15;;;;;;;;;;5062174;28;20397;-77
2023/05/22 05:34:59;;;;;;;8.77;5.55;;;;;;;;;;5066936;28;20538;-77
2023/05/22 05:37:25;;;;;;;11.68;5.75;;;;;;;;;;5061524;28;20473;-77
2023/05/22 05:39:51;;;;;;;9.95;5.78;;;;;;;;;;5066335;28;20032;-77
2023/05/22 05:42:17;;;;;;;12.90;5.72;;;;;;;;;;5062576;28;20021;-76
2023/05/22 05:44:43;;;;;;;11.10;5.57;;;;;;;;;;5065485;28;20037;-77
2023/05/22 05:47:10;;;;;;;10.88;5.97;;;;;;;;;;5072751;28;20028;-77
2023/05/22 05:49:36;;;;;;;9.15;5.78;;;;;;;;;;5066195;28;20024;-77
2023/05/22 05:52:03;;;;;;;7.30;5.78;;;;;;;;;;5063079;28;20024;-77
2023/05/22 05:54:29;;;;;;;10.20;5.55;;;;;;;;;;5063118;28;20028;-77
2023/05/22 05:56:55;;;;;;;8.80;5.68;;;;;;;;;;5057824;28;20058;-74
2023/05/22 05:59:21;;;;;;;9.60;6.07;;;;;;;;;;5060938;28;20121;-76
2023/05/22 06:01:48;;;;;;;10.07;5.55;;;;;;;;;;5059030;28;20021;-76
2023/05/22 06:04:14;;;;;;;10.30;5.85;;;;;;;;;;5069731;28;20036;-76
2023/05/22 06:06:41;;;;;;;5.68;5.10;;;;;;;;;;5062248;28;20634;-76
2023/05/22 06:09:08;;;;;;;13.10;6.28;;;;;;;;;;5068481;28;20032;-75
2023/05/22 06:11:35;;;;;;;8.20;5.32;;;;;;;;;;5063425;28;20082;-75
2023/05/22 06:14:02;;;;;;;17.58;5.75;;;;;;;;;;5064678;28;20028;-76
2023/05/22 06:16:28;;;;;;;9.52;5.78;;;;;;;;;;5062248;28;20051;-75
2023/05/22 06:18:56;;;;;;;8.05;5.30;;;;;;;;;;5064032;28;20089;-76
2023/05/22 06:21:23;;;;;;;8.70;5.10;;;;;;;;;;5061217;28;20112;-76
2023/05/22 06:23:49;;;;;;;10.93;5.85;;;;;;;;;;5065324;28;20519;-75
2023/05/22 06:26:16;;;;;;;7.60;5.72;;;;;;;;;;5070287;28;20101;-76
2023/05/22 06:28:42;;;;;;;8.77;5.50;;;;;;;;;;5064762;28;20028;-75
2023/05/22 06:31:09;;;;;;;11.60;5.97;;;;;;;;;;5063404;28;20033;-75
2023/05/22 06:33:36;;;;;;;9.30;5.78;;;;;;;;;;5065433;28;20492;-74
2023/05/22 06:36:03;;;;;;;8.70;6.20;;;;;;;;;;5063678;28;20028;-74
2023/05/22 06:38:30;;;;;;;7.38;5.35;;;;;;;;;;5066987;28;20036;-75
2023/05/22 06:40:56;;;;;;;11.25;6.10;;;;;;;;;;5064380;28;20024;-76
2023/05/22 06:43:22;;;;;;;9.23;6.22;;;;;;;;;;5071692;28;20050;-76
2023/05/22 06:45:48;;;;;;;8.35;6.07;;;;;;;;;;5064181;28;20027;-75
2023/05/22 06:48:14;;;;;;;6.65;5.32;;;;;;;;;;5064018;28;20032;-77
2023/05/22 06:50:40;;;;;;;10.43;5.85;;;;;;;;;;5063902;28;20028;-77
2023/05/22 06:53:07;;;;;;;9.68;6.07;;;;;;;;;;5059525;28;20029;-76
2023/05/22 06:55:33;;;;;;;12.52;6.18;;;;;;;;;;5063640;28;20044;-75
2023/05/22 06:57:59;;;;;;;7.82;5.40;;;;;;;;;;5060268;28;20040;-76
2023/05/22 07:00:26;;;;;;;10.00;6.38;;;;;;;;;;5061087;28;20047;-76
2023/05/22 07:02:52;;;;;;;7.30;5.57;;;;;;;;;;5057685;28;20720;-76
2023/05/22 07:05:18;;;;;;;9.30;5.65;;;;;;;;;;5060418;28;20527;-76
2023/05/22 07:07:45;;;;;;;9.00;5.70;;;;;;;;;;5056553;28;20630;-75
2023/05/22 07:10:11;;;;;;;8.88;5.97;;;;;;;;;;5059877;28;20033;-76
2023/05/22 07:12:37;;;;;;;9.77;5.90;;;;;;;;;;5054468;28;20067;-75
2023/05/22 07:15:03;;;;;;;8.38;5.40;;;;;;;;;;5062106;28;20034;-76
2023/05/22 07:17:30;;;;;;;9.43;5.95;;;;;;;;;;5062589;28;20100;-75
2023/05/22 07:19:56;;;;;;;8.35;5.55;;;;;;;;;;5062964;28;20048;-75
2023/05/22 07:22:23;;;;;;;10.07;5.18;;;;;;;;;;5062041;28;20025;-76
2023/05/22 07:24:49;;;;;;;9.20;5.50;;;;;;;;;;5063132;28;20028;-76
2023/05/22 07:27:15;;;;;;;13.10;5.97;;;;;;;;;;5060369;28;20408;-76
2023/05/22 07:29:41;;;;;;;9.00;5.28;;;;;;;;;;5066596;28;20093;-76
2023/05/22 07:32:08;;;;;;;8.65;5.13;;;;;;;;;;5066491;28;20055;-76
2023/05/22 07:34:34;;;;;;;6.43;4.80;;;;;;;;;;5064667;28;20524;-76
2023/05/22 07:37:01;;;;;;;8.90;5.68;;;;;;;;;;5071208;28;20476;-75
2023/05/22 07:39:27;;;;;;;13.68;5.13;;;;;;;;;;5066147;28;20560;-76
2023/05/22 07:41:53;;;;;;;9.90;4.68;;;;;;;;;;5065810;28;20592;-76
2023/05/22 07:44:20;;;;;;;11.13;5.00;;;;;;;;;;5066515;28;20059;-75
2023/05/22 07:46:46;;;;;;;8.80;5.22;;;;;;;;;;5061933;28;20385;-75
2023/05/22 07:49:18;;;;;;;6.03;4.82;;;;;;;;;;5064573;28;20028;-74
2023/05/22 07:51:44;;;;;;;7.65;4.28;;;;;;;;;;5060237;28;20025;-74
2023/05/22 07:54:12;;;;;;;10.15;5.18;;;;;;;;;;5068095;28;20032;-75
2023/05/22 07:56:40;;;;;;;11.95;4.78;;;;;;;;;;5067533;28;20535;-75
2023/05/22 07:59:07;;;;;;;11.38;5.43;;;;;;;;;;5073228;28;20024;-74
2023/05/22 08:01:36;;;;;;;8.25;5.38;;;;;;;;;;5064432;28;20033;-76
2023/05/22 08:04:02;;;;;;;7.88;4.97;;;;;;;;;;5069387;28;20085;-74
2023/05/22 08:06:29;;;;;;;9.80;5.47;;;;;;;;;;5067420;28;20492;-74
2023/05/22 08:08:56;;;;;;;10.10;5.00;;;;;;;;;;5065553;28;20021;-74
2023/05/22 08:11:22;;;;;;;8.98;5.18;;;;;;;;;;5067839;28;20496;-76
2023/05/22 08:13:48;;;;;;;7.13;5.05;;;;;;;;;;5067101;28;20024;-75
2023/05/22 08:16:14;;;;;;;7.32;5.28;;;;;;;;;;5065621;28;20024;-74
2023/05/22 08:18:40;;;;;;;7.88;4.78;;;;;;;;;;5067035;28;20659;-74
2023/05/22 08:21:06;;;;;;;7.13;4.95;;;;;;;;;;5067850;28;20078;-74
2023/05/22 08:23:35;;;;;;;8.02;5.03;;;;;;;;;;5067520;28;20025;-74
2023/05/22 08:26:01;;;;;;;14.52;5.65;;;;;;;;;;5066908;28;20012;-74
2023/05/22 08:28:27;;;;;;;11.32;5.28;;;;;;;;;;5068653;28;20028;-74
2023/05/22 08:30:54;;;;;;;8.55;5.40;;;;;;;;;;5067754;28;20023;-75
2023/05/22 08:33:20;;;;;;;9.80;5.70;;;;;;;;;;5067154;28;20426;-75
2023/05/22 08:35:46;;;;;;;8.32;5.10;;;;;;;;;;5068512;28;20500;-75
2023/05/22 08:38:12;;;;;;;7.22;4.65;;;;;;;;;;5067599;28;20424;-76
2023/05/22 08:40:39;;;;;;;11.80;5.45;;;;;;;;;;5067832;28;20024;-76
2023/05/22 08:43:05;;;;;;;13.07;5.50;;;;;;;;;;5064204;28;20024;-74
2023/05/22 08:45:35;;;;;;;6.97;5.05;;;;;;;;;;5068373;28;20077;-74
2023/05/22 08:48:05;;;;;;;9.10;5.55;;;;;;;;;;5063726;28;20046;-77
2023/05/22 08:50:31;;;;;;;9.80;5.32;;;;;;;;;;5068020;28;20043;-77
2023/05/22 08:53:01;;;;;;;11.48;5.53;;;;;;;;;;5059794;28;20024;-79
2023/05/22 08:55:27;;;;;;;11.73;5.65;;;;;;;;;;5067918;28;20025;-77
2023/05/22 08:57:55;;;;;;;10.32;5.53;;;;;;;;;;5064739;28;20029;-77
2023/05/22 09:00:21;;;;;;;14.63;5.22;;;;;;;;;;5069315;28;20321;-73
2023/05/22 09:02:49;;;;;;;10.48;5.75;;;;;;;;;;5065896;28;20515;-79
2023/05/22 09:05:16;;;;;;;11.10;5.15;;;;;;;;;;5064765;28;20028;-73
2023/05/22 09:07:42;;;;;;;7.85;5.35;;;;;;;;;;5061695;28;20029;-75
2023/05/22 09:10:09;;;;;;;7.72;5.30;;;;;;;;;;5067411;28;20552;-73
2023/05/22 09:12:35;;;;;;;8.55;5.45;;;;;;;;;;5065622;28;20086;-73
2023/05/22 09:15:12;;;;;;;9.70;5.13;;;;;;;;;;5065691;28;20103;-74
2023/05/22 09:17:39;;;;;;;12.55;5.63;;;;;;;;;;5063097;28;20029;-76
2023/05/22 09:20:06;;;;;;;14.25;5.20;;;;;;;;;;5068560;28;20501;-76
2023/05/22 09:22:38;;;;;;;7.60;4.95;;;;;;;;;;5066037;28;20020;-76
2023/05/22 09:25:05;;;;;;;6.95;4.82;;;;;;;;;;5068204;28;20032;-77
2023/05/22 09:27:32;;;;;;;8.38;4.80;;;;;;;;;;5072095;28;20028;-74
2023/05/22 09:29:59;;;;;;;6.80;4.97;;;;;;;;;;5066072;28;20044;-77
2023/05/22 09:32:29;;;;;;;7.65;4.90;;;;;;;;;;5064359;28;20025;-75
2023/05/22 09:35:02;;;;;;;9.23;5.13;;;;;;;;;;5068140;28;20017;-74
2023/05/22 09:37:33;;;;;;;79.43;10.48;;;;;;;;;;5066073;28;20035;-77
2023/05/22 09:39:59;;;;;;;10.85;6.00;;;;;;;;;;5068546;28;20051;-79
2023/05/22 09:42:25;;;;;;;13.55;5.47;;;;;;;;;;5067258;28;20048;-78
2023/05/22 09:44:51;;;;;;;8.82;5.32;;;;;;;;;;5070606;28;20073;-79
2023/05/22 09:47:17;;;;;;;10.95;5.78;;;;;;;;;;5067195;28;20028;-76
2023/05/22 09:49:44;;;;;;;11.95;6.13;;;;;;;;;;5069410;28;20023;-76
2023/05/22 09:52:14;;;;;;;8.50;5.68;;;;;;;;;;5059805;28;20064;-76
2023/05/22 09:54:54;;;;;;;12.13;6.28;;;;;;;;;;5062815;28;20029;-77
2023/05/22 09:57:21;;;;;;;8.48;5.57;;;;;;;;;;5063806;28;20036;-78
2023/05/22 09:59:56;;;;;;;8.73;5.13;;;;;;;;;;5064602;28;20051;-77
2023/05/22 10:02:23;;;;;;;11.10;6.13;;;;;;;;;;5064674;28;20515;-78
2023/05/22 10:04:50;;;;;;;8.82;5.47;;;;;;;;;;5062617;28;20044;-78
2023/05/22 10:07:20;;;;;;;12.65;5.35;;;;;;;;;;5060782;28;20028;-77
2023/05/22 10:09:50;;;;;;;7.28;5.05;;;;;;;;;;5063458;28;20082;-77
2023/05/22 10:12:19;;;;;;;15.88;5.15;;;;;;;;;;5059456;28;20032;-78
2023/05/22 10:14:45;;;;;;;11.20;6.07;;;;;;;;;;5059528;28;20020;-76
2023/05/22 10:17:12;;;;;;;10.95;6.50;;;;;;;;;;5058876;28;20048;-78
2023/05/22 10:19:38;;;;;;;8.90;5.80;;;;;;;;;;5062658;28;20029;-76
2023/05/22 10:22:05;;;;;;;10.55;5.15;;;;;;;;;;5060395;28;20019;-77
2023/05/22 10:24:32;;;;;;;8.05;4.88;;;;;;;;;;5061064;28;20575;-77
2023/05/22 10:26:59;;;;;;;9.73;4.32;;;;;;;;;;5059625;28;20032;-78
2023/05/22 10:29:33;;;;;;;11.30;4.38;;;;;;;;;;5062867;28;20024;-74
2023/05/22 10:32:02;;;;;;;8.18;5.00;;;;;;;;;;5057702;28;20024;-77
2023/05/22 10:34:52;;;;;;;12.80;4.40;;;;;;;;;;5059441;28;20115;-79
2023/05/22 10:37:21;;;;;;;6.35;4.90;;;;;;;;;;5050345;28;20047;-77
2023/05/22 10:39:54;;;;;;;7.05;4.72;;;;;;;;;;5069714;28;20715;-78
2023/05/22 10:42:20;;;;;;;13.02;5.82;;;;;;;;;;5055080;28;20124;-78
2023/05/22 10:44:48;;;;;;;8.05;4.43;;;;;;;;;;5058535;28;20379;-78
2023/05/22 10:47:14;;;;;;;9.10;4.78;;;;;;;;;;5060267;28;20029;-78
2023/05/22 10:49:43;;;;;;;9.60;4.03;;;;;;;;;;5062091;28;20036;-78
2023/05/22 10:52:10;;;;;;;10.45;4.32;;;;;;;;;;5058880;28;20073;-75
2023/05/22 10:54:39;;;;;;;13.20;4.93;;;;;;;;;;5057350;28;20024;-78
2023/05/22 10:57:11;;;;;;;8.77;4.07;;;;;;;;;;5061847;28;20500;-78
2023/05/22 10:59:37;;;;;;;8.35;4.78;;;;;;;;;;5057566;28;20114;-79
2023/05/22 11:02:05;;;;;;;8.73;4.65;;;;;;;;;;5058253;28;20107;-77
2023/05/22 11:04:33;;;;;;;9.00;5.13;;;;;;;;;;5056845;28;20891;-78
2023/05/22 11:07:03;;;;;;;6.55;4.60;;;;;;;;;;5060905;28;20024;-77
2023/05/22 11:09:34;;;;;;;8.35;5.35;;;;;;;;;;5061650;28;20525;-77
2023/05/22 11:12:15;;;;;;;11.60;4.68;;;;;;;;;;5048587;28;20029;-77
2023/05/22 11:14:41;;;;;;;;;;;;;;;;;;5058816;28;20032;-77
2023/05/22 11:17:08;;;;;;;10.75;4.78;;;;;;;;;;5059292;28;20012;-77
2023/05/22 11:19:34;;;;;;;6.82;4.85;;;;;;;;;;5061229;28;20028;-75
2023/05/22 11:22:01;;;;;;;7.18;4.28;;;;;;;;;;5055724;28;20143;-78
2023/05/22 11:24:33;;;;;;;6.28;4.43;;;;;;;;;;5061413;28;20480;-79
2023/05/22 11:27:04;;;;;;;14.63;5.15;;;;;;;;;;5057132;28;20078;-76
2023/05/22 11:29:30;;;;;;;9.63;5.40;;;;;;;;;;5060887;28;20068;-77
2023/05/22 11:31:57;;;;;;;9.98;5.15;;;;;;;;;;5061349;28;20135;-82
2023/05/22 11:34:24;;;;;;;9.88;4.85;;;;;;;;;;5060808;28;20028;-77
2023/05/22 11:36:52;;;;;;;7.28;4.68;;;;;;;;;;5060834;28;20028;-77
2023/05/22 11:39:18;;;;;;;6.63;4.72;;;;;;;;;;5060657;28;20024;-77
2023/05/22 11:41:44;;;;;;;8.10;5.40;;;;;;;;;;5056538;28;20025;-76
2023/05/22 11:44:10;;;;;;;8.13;4.53;;;;;;;;;;5060197;28;20115;-75
2023/05/22 11:46:38;;;;;;;10.20;4.95;;;;;;;;;;5058196;28;20116;-77
2023/05/22 11:49:05;;;;;;;8.95;4.63;;;;;;;;;;5061535;28;20100;-77
2023/05/22 11:51:32;;;;;;;9.23;4.40;;;;;;;;;;5057820;28;20400;-76
2023/05/22 11:53:58;;;;;;;7.63;4.93;;;;;;;;;;5061771;28;20021;-77
2023/05/22 11:56:25;;;;;;;10.60;5.35;;;;;;;;;;5061061;28;20096;-77
2023/05/22 11:58:51;;;;;;;8.75;4.80;;;;;;;;;;5054254;28;20037;-76
2023/05/22 12:01:17;;;;;;;9.15;4.50;;;;;;;;;;5058810;28;20083;-76
2023/05/22 12:03:43;;;;;;;6.80;4.60;;;;;;;;;;5058467;28;20071;-77
2023/05/22 12:06:10;;;;;;;10.27;4.63;;;;;;;;;;5059213;28;20035;-76
2023/05/22 12:08:36;;;;;;;9.43;5.10;;;;;;;;;;5055785;28;20033;-77
2023/05/22 12:11:05;;;;;;;12.20;4.90;;;;;;;;;;5062923;28;20024;-78
2023/05/22 12:13:31;;;;;;;7.15;4.65;;;;;;;;;;5058512;28;20020;-77
2023/05/22 12:15:59;;;;;;;8.15;4.20;;;;;;;;;;5059546;28;20091;-77
2023/05/22 12:18:25;;;;;;;10.10;4.35;;;;;;;;;;5061150;28;20032;-76
2023/05/22 12:20:53;;;;;;;10.25;4.47;;;;;;;;;;5058721;28;20017;-77
2023/05/22 12:23:26;;;;;;;9.18;4.25;;;;;;;;;;5057167;28;20036;-77
2023/05/22 12:25:57;;;;;;;9.52;4.65;;;;;;;;;;5060813;28;20016;-78
2023/05/22 12:28:24;;;;;;;8.13;5.10;;;;;;;;;;5058583;28;20408;-78
2023/05/22 12:30:53;;;;;;;15.48;4.63;;;;;;;;;;5056556;28;20539;-74
2023/05/22 12:33:20;;;;;;;14.00;5.00;;;;;;;;;;5057112;28;20036;-75
2023/05/22 12:35:51;;;;;;;8.90;4.50;;;;;;;;;;5060344;28;20499;-76
2023/05/22 12:38:19;;;;;;;10.05;4.28;;;;;;;;;;5057480;28;20639;-75
2023/05/22 12:40:46;;;;;;;11.55;5.03;;;;;;;;;;5062842;28;20606;-75
2023/05/22 12:43:12;;;;;;;8.93;4.25;;;;;;;;;;5059390;28;20044;-76
2023/05/22 12:45:41;;;;;;;9.65;3.72;;;;;;;;;;5065583;28;20033;-76
2023/05/22 12:48:08;;;;;;;8.55;3.90;;;;;;;;;;5062119;28;20028;-76
2023/05/22 12:50:37;;;;;;;10.40;4.65;;;;;;;;;;5059344;28;20046;-77
2023/05/22 12:53:03;;;;;;;6.20;3.50;;;;;;;;;;5062250;28;20107;-74
2023/05/22 12:55:30;;;;;;;7.90;3.85;;;;;;;;;;5063746;28;20677;-77
2023/05/22 12:57:56;;;;;;;9.77;3.65;;;;;;;;;;5062119;28;20082;-74
2023/05/22 13:00:22;;;;;;;67.82;6.70;;;;;;;;;;5060678;28;20132;-74
2023/05/22 13:02:49;;;;;;;194.80;20.77;;;;;;;;;;5058131;28;20616;-75
2023/05/22 13:05:15;;;;;;;222.88;26.08;;;;;;;;;;5064430;28;20182;-76
2023/05/22 13:07:41;;;;;;;162.27;21.02;;;;;;;;;;5061578;28;20055;-76
2023/05/22 13:10:08;;;;;;;31.75;6.15;;;;;;;;;;5061651;28;20037;-76
2023/05/22 13:12:34;;;;;;;80.57;10.13;;;;;;;;;;5059215;28;20103;-75
2023/05/22 13:15:01;;;;;;;97.63;9.82;;;;;;;;;;5060439;28;20070;-76
2023/05/22 13:17:27;;;;;;;22.75;5.88;;;;;;;;;;5057810;28;20052;-79
2023/05/22 13:19:57;;;;;;;9.70;4.22;;;;;;;;;;5063409;28;20594;-81
2023/05/22 13:22:23;;;;;;;18.65;4.78;;;;;;;;;;5060462;28;20042;-80
2023/05/22 13:24:50;;;;;;;8.63;4.05;;;;;;;;;;5061953;28;20094;-74
2023/05/22 13:27:17;;;;;;;23.42;5.38;;;;;;;;;;5060431;28;20115;-74
2023/05/22 13:29:44;;;;;;;9.57;4.07;;;;;;;;;;5063338;28;20016;-79
2023/05/22 13:32:13;;;;;;;7.65;4.03;;;;;;;;;;5061639;28;20020;-78
2023/05/22 13:34:40;;;;;;;10.50;4.20;;;;;;;;;;5058183;28;20461;-79
2023/05/22 13:37:07;;;;;;;8.88;4.45;;;;;;;;;;5061306;28;20119;-77
2023/05/22 13:39:34;;;;;;;6.20;4.32;;;;;;;;;;5063385;28;20013;-78
2023/05/22 13:42:00;;;;;;;10.63;4.30;;;;;;;;;;5068153;28;20043;-82
2023/05/22 13:44:27;;;;;;;6.13;3.80;;;;;;;;;;5062416;28;20032;-81
2023/05/22 13:46:53;;;;;;;6.85;4.47;;;;;;;;;;5058199;28;20103;-80
2023/05/22 13:49:19;;;;;;;8.10;4.32;;;;;;;;;;5060880;28;20399;-82
2023/05/22 13:51:45;;;;;;;13.25;4.47;;;;;;;;;;5060770;28;20372;-82
2023/05/22 13:54:11;;;;;;;8.43;4.22;;;;;;;;;;5070343;28;20043;-79
2023/05/22 13:56:38;;;;;;;11.23;4.40;;;;;;;;;;5063156;28;20029;-80
2023/05/22 13:59:04;;;;;;;9.05;4.60;;;;;;;;;;5062763;28;20527;-75
2023/05/22 14:01:30;;;;;;;9.93;3.95;;;;;;;;;;5059515;28;20507;-78
2023/05/22 14:03:56;;;;;;;6.93;4.57;;;;;;;;;;5060143;28;20490;-75
2023/05/22 14:06:23;;;;;;;5.32;3.67;;;;;;;;;;5061012;28;20131;-80
2023/05/22 14:08:49;;;;;;;6.63;4.47;;;;;;;;;;5057982;28;20028;-78
2023/05/22 14:11:15;;;;;;;9.43;4.93;;;;;;;;;;5060217;28;20875;-79
2023/05/22 14:13:42;;;;;;;9.25;5.13;;;;;;;;;;5058139;28;20025;-77
2023/05/22 14:16:08;;;;;;;6.07;4.40;;;;;;;;;;5067996;28;20223;-78
2023/05/22 14:18:35;;;;;;;6.03;3.95;;;;;;;;;;5056678;28;20567;-79
2023/05/22 14:21:01;;;;;;;5.43;4.18;;;;;;;;;;5060951;28;20025;-79
2023/05/22 14:23:27;;;;;;;7.28;4.40;;;;;;;;;;5058348;28;20094;-77
2023/05/22 14:25:53;;;;;;;7.97;5.00;;;;;;;;;;5062513;28;20021;-80
2023/05/22 14:28:19;;;;;;;8.32;4.90;;;;;;;;;;5056487;28;20435;-79
2023/05/22 14:30:46;;;;;;;11.52;4.93;;;;;;;;;;5062963;28;20109;-80
2023/05/22 14:33:12;;;;;;;7.47;4.75;;;;;;;;;;5063785;28;20016;-78
2023/05/22 14:35:38;;;;;;;8.70;5.40;;;;;;;;;;5069832;28;20024;-81
2023/05/22 14:38:04;;;;;;;6.70;4.10;;;;;;;;;;5063360;28;20131;-80